sensor_id;sensor_type;location;lat;lon;timestamp;temperature;humidity
22071;DHT22;11200;51.488;6.668;2023-05-01T00:01:18;11.70;99.90
22071;DHT22;11200;51.488;6.668;2023-05-01T00:03:44;11.70;99.90
22071;DHT22;11200;51.488;6.668;2023-05-01T00:06:10;11.70;99.90
22071;DHT22;11200;51.488;6.668;2023-05-01T00:08:35;11.70;99.90
22071;DHT22;11200;51.488;6.668;2023-05-01T00:11:02;11.70;99.90
22071;DHT22;11200;51.488;6.668;2023-05-01T00:13:28;11.60;99.90
22071;DHT22;11200;51.488;6.668;2023-05-01T00:15:54;11.60;99.90
22071;DHT22;11200;51.488;6.668;2023-05-01T00:18:20;11.60;99.90
22071;DHT22;11200;51.488;6.668;2023-05-01T00:20:46;11.60;99.90
22071;DHT22;11200;51.488;6.668;2023-05-01T00:23:11;11.60;99.90
22071;DHT22;11200;51.488;6.668;2023-05-01T00:25:38;11.50;99.90
22071;DHT22;11200;51.488;6.668;2023-05-01T00:28:04;11.50;99.90
22071;DHT22;11200;51.488;6.668;2023-05-01T00:30:32;11.50;99.90
22071;DHT22;11200;51.488;6.668;2023-05-01T00:32:58;11.50;99.90
22071;DHT22;11200;51.488;6.668;2023-05-01T00:35:25;11.40;99.90
22071;DHT22;11200;51.488;6.668;2023-05-01T00:37:50;11.40;99.90
22071;DHT22;11200;51.488;6.668;2023-05-01T00:40:16;11.30;99.90
22071;DHT22;11200;51.488;6.668;2023-05-01T00:42:43;11.30;99.90
22071;DHT22;11200;51.488;6.668;2023-05-01T00:45:09;11.30;99.90
22071;DHT22;11200;51.488;6.668;2023-05-01T00:47:35;11.30;99.90
22071;DHT22;11200;51.488;6.668;2023-05-01T00:50:01;11.20;99.90
22071;DHT22;11200;51.488;6.668;2023-05-01T00:52:28;11.20;99.90
22071;DHT22;11200;51.488;6.668;2023-05-01T00:54:54;11.20;99.90
22071;DHT22;11200;51.488;6.668;2023-05-01T00:57:20;11.20;99.90
22071;DHT22;11200;51.488;6.668;2023-05-01T00:59:47;11.20;99.90
22071;DHT22;11200;51.488;6.668;2023-05-01T01:02:13;11.10;99.90
22071;DHT22;11200;51.488;6.668;2023-05-01T01:04:44;11.10;99.90
22071;DHT22;11200;51.488;6.668;2023-05-01T01:09:57;11.10;99.90
22071;DHT22;11200;51.488;6.668;2023-05-01T01:15:29;11.00;99.90
22071;DHT22;11200;51.488;6.668;2023-05-01T01:18:09;10.90;99.90
22071;DHT22;11200;51.488;6.668;2023-05-01T01:20:48;10.90;99.90
22071;DHT22;11200;51.488;6.668;2023-05-01T01:23:35;10.90;99.90
22071;DHT22;11200;51.488;6.668;2023-05-01T01:35:07;10.80;99.90
22071;DHT22;11200;51.488;6.668;2023-05-01T01:37:41;10.70;99.90
22071;DHT22;11200;51.488;6.668;2023-05-01T01:40:14;10.80;99.90
22071;DHT22;11200;51.488;6.668;2023-05-01T01:42:45;10.70;99.90
22071;DHT22;11200;51.488;6.668;2023-05-01T01:45:21;10.60;99.90
22071;DHT22;11200;51.488;6.668;2023-05-01T01:47:49;10.60;99.90
22071;DHT22;11200;51.488;6.668;2023-05-01T01:50:16;10.60;99.90
22071;DHT22;11200;51.488;6.668;2023-05-01T01:52:46;10.60;99.90
22071;DHT22;11200;51.488;6.668;2023-05-01T01:55:14;10.60;99.90
22071;DHT22;11200;51.488;6.668;2023-05-01T01:57:41;10.50;99.90
22071;DHT22;11200;51.488;6.668;2023-05-01T02:00:09;10.50;99.90
22071;DHT22;11200;51.488;6.668;2023-05-01T02:02:37;10.50;99.90
22071;DHT22;11200;51.488;6.668;2023-05-01T02:05:06;10.40;99.90
22071;DHT22;11200;51.488;6.668;2023-05-01T02:07:32;10.40;99.90
22071;DHT22;11200;51.488;6.668;2023-05-01T02:10:00;10.40;99.90
22071;DHT22;11200;51.488;6.668;2023-05-01T02:12:28;10.30;99.90
22071;DHT22;11200;51.488;6.668;2023-05-01T02:14:57;10.30;99.90
22071;DHT22;11200;51.488;6.668;2023-05-01T02:17:23;10.30;99.90
22071;DHT22;11200;51.488;6.668;2023-05-01T02:19:50;10.40;99.90
22071;DHT22;11200;51.488;6.668;2023-05-01T02:22:18;10.30;99.90
22071;DHT22;11200;51.488;6.668;2023-05-01T02:24:45;10.20;99.90
22071;DHT22;11200;51.488;6.668;2023-05-01T02:27:16;10.20;99.90
22071;DHT22;11200;51.488;6.668;2023-05-01T02:29:45;10.20;99.90
22071;DHT22;11200;51.488;6.668;2023-05-01T02:32:11;10.20;99.90
22071;DHT22;11200;51.488;6.668;2023-05-01T02:34:36;10.20;99.90
22071;DHT22;11200;51.488;6.668;2023-05-01T02:37:06;10.20;99.90
22071;DHT22;11200;51.488;6.668;2023-05-01T02:39:33;10.20;99.90
22071;DHT22;11200;51.488;6.668;2023-05-01T02:41:59;10.30;99.90
22071;DHT22;11200;51.488;6.668;2023-05-01T02:44:28;10.10;99.90
22071;DHT22;11200;51.488;6.668;2023-05-01T02:46:58;10.20;99.90
22071;DHT22;11200;51.488;6.668;2023-05-01T02:49:25;10.10;99.90
22071;DHT22;11200;51.488;6.668;2023-05-01T02:51:52;10.10;99.90
22071;DHT22;11200;51.488;6.668;2023-05-01T02:54:18;10.10;99.90
22071;DHT22;11200;51.488;6.668;2023-05-01T02:56:45;10.10;99.90
22071;DHT22;11200;51.488;6.668;2023-05-01T02:59:10;10.00;99.90
22071;DHT22;11200;51.488;6.668;2023-05-01T03:01:36;10.20;99.90
22071;DHT22;11200;51.488;6.668;2023-05-01T03:04:02;10.00;99.90
22071;DHT22;11200;51.488;6.668;2023-05-01T03:06:28;10.10;99.90
22071;DHT22;11200;51.488;6.668;2023-05-01T03:08:55;10.00;99.90
22071;DHT22;11200;51.488;6.668;2023-05-01T03:11:20;10.00;99.90
22071;DHT22;11200;51.488;6.668;2023-05-01T03:13:46;10.00;99.90
22071;DHT22;11200;51.488;6.668;2023-05-01T03:16:13;10.00;99.90
22071;DHT22;11200;51.488;6.668;2023-05-01T03:18:38;10.00;99.90
22071;DHT22;11200;51.488;6.668;2023-05-01T03:21:04;10.00;99.90
22071;DHT22;11200;51.488;6.668;2023-05-01T03:23:29;10.00;99.90
22071;DHT22;11200;51.488;6.668;2023-05-01T03:25:55;9.90;99.90
22071;DHT22;11200;51.488;6.668;2023-05-01T03:28:21;9.90;99.90
22071;DHT22;11200;51.488;6.668;2023-05-01T03:30:49;9.90;99.90
22071;DHT22;11200;51.488;6.668;2023-05-01T03:33:16;9.90;99.90
22071;DHT22;11200;51.488;6.668;2023-05-01T03:35:41;9.90;99.90
22071;DHT22;11200;51.488;6.668;2023-05-01T03:38:08;9.90;99.90
22071;DHT22;11200;51.488;6.668;2023-05-01T03:40:33;9.80;99.90
22071;DHT22;11200;51.488;6.668;2023-05-01T03:42:59;9.80;99.90
22071;DHT22;11200;51.488;6.668;2023-05-01T03:45:25;9.80;99.90
22071;DHT22;11200;51.488;6.668;2023-05-01T03:47:50;9.80;99.90
22071;DHT22;11200;51.488;6.668;2023-05-01T03:50:17;9.80;99.90
22071;DHT22;11200;51.488;6.668;2023-05-01T03:52:43;9.80;99.90
22071;DHT22;11200;51.488;6.668;2023-05-01T03:55:08;9.70;99.90
22071;DHT22;11200;51.488;6.668;2023-05-01T03:57:34;9.70;99.90
22071;DHT22;11200;51.488;6.668;2023-05-01T03:59:59;9.80;99.90
22071;DHT22;11200;51.488;6.668;2023-05-01T04:02:31;9.70;99.90
22071;DHT22;11200;51.488;6.668;2023-05-01T04:04:56;9.60;99.90
22071;DHT22;11200;51.488;6.668;2023-05-01T04:07:23;10.10;99.90
22071;DHT22;11200;51.488;6.668;2023-05-01T04:09:49;9.60;99.90
22071;DHT22;11200;51.488;6.668;2023-05-01T04:12:15;8.70;99.90
22071;DHT22;11200;51.488;6.668;2023-05-01T04:14:40;9.50;99.90
22071;DHT22;11200;51.488;6.668;2023-05-01T04:17:07;9.60;99.90
22071;DHT22;11200;51.488;6.668;2023-05-01T04:19:33;9.60;99.90
22071;DHT22;11200;51.488;6.668;2023-05-01T04:21:59;9.50;99.90
22071;DHT22;11200;51.488;6.668;2023-05-01T04:24:25;9.50;99.90
22071;DHT22;11200;51.488;6.668;2023-05-01T04:26:51;9.40;99.90
22071;DHT22;11200;51.488;6.668;2023-05-01T04:29:16;9.50;99.90
22071;DHT22;11200;51.488;6.668;2023-05-01T04:31:42;9.40;99.90
22071;DHT22;11200;51.488;6.668;2023-05-01T04:34:08;9.40;99.90
22071;DHT22;11200;51.488;6.668;2023-05-01T04:36:34;9.40;99.90
22071;DHT22;11200;51.488;6.668;2023-05-01T04:38:59;9.40;99.90
22071;DHT22;11200;51.488;6.668;2023-05-01T04:41:25;9.40;99.90
22071;DHT22;11200;51.488;6.668;2023-05-01T04:43:51;9.40;99.90
22071;DHT22;11200;51.488;6.668;2023-05-01T04:46:17;9.50;99.90
22071;DHT22;11200;51.488;6.668;2023-05-01T04:48:42;9.40;99.90
22071;DHT22;11200;51.488;6.668;2023-05-01T04:51:08;9.30;99.90
22071;DHT22;11200;51.488;6.668;2023-05-01T04:53:33;9.40;99.90
22071;DHT22;11200;51.488;6.668;2023-05-01T04:55:59;9.30;99.90
22071;DHT22;11200;51.488;6.668;2023-05-01T04:58:24;9.30;99.90
22071;DHT22;11200;51.488;6.668;2023-05-01T05:00:50;9.30;99.90
22071;DHT22;11200;51.488;6.668;2023-05-01T05:03:15;9.30;99.90
22071;DHT22;11200;51.488;6.668;2023-05-01T05:05:43;9.30;99.90
22071;DHT22;11200;51.488;6.668;2023-05-01T05:08:09;9.30;99.90
22071;DHT22;11200;51.488;6.668;2023-05-01T05:10:35;9.40;99.90
22071;DHT22;11200;51.488;6.668;2023-05-01T05:13:01;9.40;99.90
22071;DHT22;11200;51.488;6.668;2023-05-01T05:15:26;9.30;99.90
22071;DHT22;11200;51.488;6.668;2023-05-01T05:17:52;9.30;99.90
22071;DHT22;11200;51.488;6.668;2023-05-01T05:20:17;9.30;99.90
22071;DHT22;11200;51.488;6.668;2023-05-01T05:22:43;9.30;99.90
22071;DHT22;11200;51.488;6.668;2023-05-01T05:25:09;9.40;99.90
22071;DHT22;11200;51.488;6.668;2023-05-01T05:27:35;9.40;99.90
22071;DHT22;11200;51.488;6.668;2023-05-01T05:30:06;9.40;99.90
22071;DHT22;11200;51.488;6.668;2023-05-01T05:32:32;9.40;99.90
22071;DHT22;11200;51.488;6.668;2023-05-01T05:34:58;9.50;99.90
22071;DHT22;11200;51.488;6.668;2023-05-01T05:37:23;9.40;99.90
22071;DHT22;11200;51.488;6.668;2023-05-01T05:39:51;9.40;99.90
22071;DHT22;11200;51.488;6.668;2023-05-01T05:42:17;9.40;99.90
22071;DHT22;11200;51.488;6.668;2023-05-01T05:44:42;9.50;99.90
22071;DHT22;11200;51.488;6.668;2023-05-01T05:47:08;9.50;99.90
22071;DHT22;11200;51.488;6.668;2023-05-01T05:49:33;9.50;99.90
22071;DHT22;11200;51.488;6.668;2023-05-01T05:51:59;9.60;99.90
22071;DHT22;11200;51.488;6.668;2023-05-01T05:54:25;9.60;99.90
22071;DHT22;11200;51.488;6.668;2023-05-01T05:56:50;9.70;99.90
22071;DHT22;11200;51.488;6.668;2023-05-01T05:59:16;9.70;99.90
22071;DHT22;11200;51.488;6.668;2023-05-01T06:01:42;9.80;99.90
22071;DHT22;11200;51.488;6.668;2023-05-01T06:04:08;9.80;99.90
22071;DHT22;11200;51.488;6.668;2023-05-01T06:06:35;9.80;99.90
22071;DHT22;11200;51.488;6.668;2023-05-01T06:09:01;9.90;99.90
22071;DHT22;11200;51.488;6.668;2023-05-01T06:11:29;10.00;99.90
22071;DHT22;11200;51.488;6.668;2023-05-01T06:13:54;10.00;99.90
22071;DHT22;11200;51.488;6.668;2023-05-01T06:16:21;10.10;99.90
22071;DHT22;11200;51.488;6.668;2023-05-01T06:18:50;10.10;99.90
22071;DHT22;11200;51.488;6.668;2023-05-01T06:21:15;10.20;99.90
22071;DHT22;11200;51.488;6.668;2023-05-01T06:23:41;10.30;99.90
22071;DHT22;11200;51.488;6.668;2023-05-01T06:26:06;10.30;99.90
22071;DHT22;11200;51.488;6.668;2023-05-01T06:28:32;10.40;99.90
22071;DHT22;11200;51.488;6.668;2023-05-01T06:30:59;10.50;99.90
22071;DHT22;11200;51.488;6.668;2023-05-01T06:33:25;10.50;99.90
22071;DHT22;11200;51.488;6.668;2023-05-01T06:35:52;10.60;99.90
22071;DHT22;11200;51.488;6.668;2023-05-01T06:38:18;10.70;99.90
22071;DHT22;11200;51.488;6.668;2023-05-01T06:40:44;11.10;99.90
22071;DHT22;11200;51.488;6.668;2023-05-01T06:43:11;10.80;99.90
22071;DHT22;11200;51.488;6.668;2023-05-01T06:45:37;10.90;99.90
22071;DHT22;11200;51.488;6.668;2023-05-01T06:48:04;11.00;99.90
22071;DHT22;11200;51.488;6.668;2023-05-01T06:50:30;11.10;99.90
22071;DHT22;11200;51.488;6.668;2023-05-01T06:52:56;11.10;99.90
22071;DHT22;11200;51.488;6.668;2023-05-01T06:55:24;11.20;99.90
22071;DHT22;11200;51.488;6.668;2023-05-01T06:57:50;11.30;99.90
22071;DHT22;11200;51.488;6.668;2023-05-01T07:00:16;11.40;99.90
22071;DHT22;11200;51.488;6.668;2023-05-01T07:02:43;11.40;99.90
22071;DHT22;11200;51.488;6.668;2023-05-01T07:05:09;11.50;99.90
22071;DHT22;11200;51.488;6.668;2023-05-01T07:07:36;11.60;99.90
22071;DHT22;11200;51.488;6.668;2023-05-01T07:10:02;11.80;99.90
22071;DHT22;11200;51.488;6.668;2023-05-01T07:12:27;11.80;99.90
22071;DHT22;11200;51.488;6.668;2023-05-01T07:14:54;11.80;99.90
22071;DHT22;11200;51.488;6.668;2023-05-01T07:17:21;11.90;99.90
22071;DHT22;11200;51.488;6.668;2023-05-01T07:19:47;12.00;99.90
22071;DHT22;11200;51.488;6.668;2023-05-01T07:22:12;12.10;99.90
22071;DHT22;11200;51.488;6.668;2023-05-01T07:24:38;12.10;99.90
22071;DHT22;11200;51.488;6.668;2023-05-01T07:27:04;12.30;99.90
22071;DHT22;11200;51.488;6.668;2023-05-01T07:29:29;12.30;99.90
22071;DHT22;11200;51.488;6.668;2023-05-01T07:31:55;12.40;99.90
22071;DHT22;11200;51.488;6.668;2023-05-01T07:34:20;12.50;99.90
22071;DHT22;11200;51.488;6.668;2023-05-01T07:36:46;12.60;99.90
22071;DHT22;11200;51.488;6.668;2023-05-01T07:39:11;12.70;99.90
22071;DHT22;11200;51.488;6.668;2023-05-01T07:41:39;12.70;99.90
22071;DHT22;11200;51.488;6.668;2023-05-01T07:44:04;12.80;99.90
22071;DHT22;11200;51.488;6.668;2023-05-01T07:46:30;12.90;99.90
22071;DHT22;11200;51.488;6.668;2023-05-01T07:48:56;13.00;99.90
22071;DHT22;11200;51.488;6.668;2023-05-01T07:51:21;13.00;99.90
22071;DHT22;11200;51.488;6.668;2023-05-01T07:53:48;13.20;99.90
22071;DHT22;11200;51.488;6.668;2023-05-01T07:56:14;13.20;99.90
22071;DHT22;11200;51.488;6.668;2023-05-01T07:58:40;13.30;99.90
22071;DHT22;11200;51.488;6.668;2023-05-01T08:01:07;13.40;99.90
22071;DHT22;11200;51.488;6.668;2023-05-01T08:03:33;13.50;99.90
22071;DHT22;11200;51.488;6.668;2023-05-01T08:05:59;13.60;99.90
22071;DHT22;11200;51.488;6.668;2023-05-01T08:08:24;13.70;99.90
22071;DHT22;11200;51.488;6.668;2023-05-01T08:10:50;13.80;99.90
22071;DHT22;11200;51.488;6.668;2023-05-01T08:13:17;13.90;99.90
22071;DHT22;11200;51.488;6.668;2023-05-01T08:15:47;14.00;99.90
22071;DHT22;11200;51.488;6.668;2023-05-01T08:18:13;14.20;99.90
22071;DHT22;11200;51.488;6.668;2023-05-01T08:20:48;14.30;99.90
22071;DHT22;11200;51.488;6.668;2023-05-01T08:23:15;14.40;99.90
22071;DHT22;11200;51.488;6.668;2023-05-01T08:25:40;14.60;99.90
22071;DHT22;11200;51.488;6.668;2023-05-01T08:28:06;14.70;99.90
22071;DHT22;11200;51.488;6.668;2023-05-01T08:30:32;14.80;99.90
22071;DHT22;11200;51.488;6.668;2023-05-01T08:32:57;14.90;99.90
22071;DHT22;11200;51.488;6.668;2023-05-01T08:35:23;15.10;99.90
22071;DHT22;11200;51.488;6.668;2023-05-01T08:37:48;15.20;99.90
22071;DHT22;11200;51.488;6.668;2023-05-01T08:40:14;15.40;99.90
22071;DHT22;11200;51.488;6.668;2023-05-01T08:42:40;15.50;99.90
22071;DHT22;11200;51.488;6.668;2023-05-01T08:45:09;15.60;99.90
22071;DHT22;11200;51.488;6.668;2023-05-01T08:47:36;15.70;99.90
22071;DHT22;11200;51.488;6.668;2023-05-01T08:50:03;15.90;99.90
22071;DHT22;11200;51.488;6.668;2023-05-01T08:52:32;16.00;99.90
22071;DHT22;11200;51.488;6.668;2023-05-01T08:54:59;16.10;99.90
22071;DHT22;11200;51.488;6.668;2023-05-01T08:57:35;16.20;99.90
22071;DHT22;11200;51.488;6.668;2023-05-01T09:00:02;16.30;99.90
22071;DHT22;11200;51.488;6.668;2023-05-01T09:02:30;16.40;99.90
22071;DHT22;11200;51.488;6.668;2023-05-01T09:05:00;16.50;99.90
22071;DHT22;11200;51.488;6.668;2023-05-01T09:07:28;16.60;99.90
22071;DHT22;11200;51.488;6.668;2023-05-01T09:09:55;16.70;99.90
22071;DHT22;11200;51.488;6.668;2023-05-01T09:12:25;17.00;99.90
22071;DHT22;11200;51.488;6.668;2023-05-01T09:14:55;17.00;99.90
22071;DHT22;11200;51.488;6.668;2023-05-01T09:17:22;17.10;99.90
22071;DHT22;11200;51.488;6.668;2023-05-01T09:19:49;17.20;99.90
22071;DHT22;11200;51.488;6.668;2023-05-01T09:22:16;17.30;99.90
22071;DHT22;11200;51.488;6.668;2023-05-01T09:24:46;17.40;99.90
22071;DHT22;11200;51.488;6.668;2023-05-01T09:27:12;17.60;99.90
22071;DHT22;11200;51.488;6.668;2023-05-01T09:29:39;17.70;99.90
22071;DHT22;11200;51.488;6.668;2023-05-01T09:32:31;17.90;99.90
22071;DHT22;11200;51.488;6.668;2023-05-01T09:35:12;18.00;99.90
22071;DHT22;11200;51.488;6.668;2023-05-01T09:37:38;18.20;99.90
22071;DHT22;11200;51.488;6.668;2023-05-01T09:40:12;18.10;99.90
22071;DHT22;11200;51.488;6.668;2023-05-01T09:45:14;18.50;99.90
22071;DHT22;11200;51.488;6.668;2023-05-01T09:47:46;18.60;99.90
22071;DHT22;11200;51.488;6.668;2023-05-01T09:50:29;18.70;99.90
22071;DHT22;11200;51.488;6.668;2023-05-01T09:52:55;18.80;99.90
22071;DHT22;11200;51.488;6.668;2023-05-01T09:55:21;18.80;99.90
22071;DHT22;11200;51.488;6.668;2023-05-01T09:57:48;18.90;99.90
22071;DHT22;11200;51.488;6.668;2023-05-01T10:00:15;19.00;99.90
22071;DHT22;11200;51.488;6.668;2023-05-01T10:02:45;19.10;99.90
22071;DHT22;11200;51.488;6.668;2023-05-01T10:05:12;19.20;99.90
22071;DHT22;11200;51.488;6.668;2023-05-01T10:07:59;19.20;99.90
22071;DHT22;11200;51.488;6.668;2023-05-01T10:10:26;19.30;99.90
22071;DHT22;11200;51.488;6.668;2023-05-01T10:12:52;19.40;99.90
22071;DHT22;11200;51.488;6.668;2023-05-01T10:15:38;19.40;99.90
22071;DHT22;11200;51.488;6.668;2023-05-01T10:18:04;19.50;99.90
22071;DHT22;11200;51.488;6.668;2023-05-01T10:20:30;19.70;99.90
22071;DHT22;11200;51.488;6.668;2023-05-01T10:22:58;19.70;99.90
22071;DHT22;11200;51.488;6.668;2023-05-01T10:25:27;19.80;99.90
22071;DHT22;11200;51.488;6.668;2023-05-01T10:27:54;19.90;99.90
22071;DHT22;11200;51.488;6.668;2023-05-01T10:30:21;20.10;99.90
22071;DHT22;11200;51.488;6.668;2023-05-01T10:32:47;20.20;99.90
22071;DHT22;11200;51.488;6.668;2023-05-01T10:35:18;20.30;99.90
22071;DHT22;11200;51.488;6.668;2023-05-01T10:38:04;20.40;99.90
22071;DHT22;11200;51.488;6.668;2023-05-01T10:43:15;20.70;99.90
22071;DHT22;11200;51.488;6.668;2023-05-01T10:45:46;20.80;99.90
22071;DHT22;11200;51.488;6.668;2023-05-01T10:48:36;21.00;99.90
22071;DHT22;11200;51.488;6.668;2023-05-01T10:51:22;21.00;99.90
22071;DHT22;11200;51.488;6.668;2023-05-01T10:59:04;21.50;99.90
22071;DHT22;11200;51.488;6.668;2023-05-01T11:01:40;21.70;99.90
22071;DHT22;11200;51.488;6.668;2023-05-01T11:04:07;21.90;99.90
22071;DHT22;11200;51.488;6.668;2023-05-01T11:12:03;22.30;99.90
22071;DHT22;11200;51.488;6.668;2023-05-01T11:20:06;22.70;99.90
22071;DHT22;11200;51.488;6.668;2023-05-01T11:22:32;22.80;99.90
22071;DHT22;11200;51.488;6.668;2023-05-01T11:24:58;22.90;99.90
22071;DHT22;11200;51.488;6.668;2023-05-01T11:27:25;23.00;99.90
22071;DHT22;11200;51.488;6.668;2023-05-01T11:29:52;23.10;99.90
22071;DHT22;11200;51.488;6.668;2023-05-01T11:32:27;23.20;99.90
22071;DHT22;11200;51.488;6.668;2023-05-01T11:34:55;23.30;99.90
22071;DHT22;11200;51.488;6.668;2023-05-01T11:37:42;23.40;99.90
22071;DHT22;11200;51.488;6.668;2023-05-01T11:43:08;23.60;99.90
22071;DHT22;11200;51.488;6.668;2023-05-01T11:45:36;23.70;99.90
22071;DHT22;11200;51.488;6.668;2023-05-01T11:48:02;23.80;99.90
22071;DHT22;11200;51.488;6.668;2023-05-01T11:50:32;24.00;99.90
22071;DHT22;11200;51.488;6.668;2023-05-01T11:52:59;24.00;99.90
22071;DHT22;11200;51.488;6.668;2023-05-01T11:55:33;24.10;99.90
22071;DHT22;11200;51.488;6.668;2023-05-01T11:57:59;24.10;99.90
22071;DHT22;11200;51.488;6.668;2023-05-01T12:00:43;24.20;99.90
22071;DHT22;11200;51.488;6.668;2023-05-01T12:03:11;24.40;99.90
22071;DHT22;11200;51.488;6.668;2023-05-01T12:05:39;24.40;99.90
22071;DHT22;11200;51.488;6.668;2023-05-01T12:10:37;24.60;99.90
22071;DHT22;11200;51.488;6.668;2023-05-01T12:13:05;24.60;99.90
22071;DHT22;11200;51.488;6.668;2023-05-01T12:15:34;24.80;99.90
22071;DHT22;11200;51.488;6.668;2023-05-01T12:18:01;24.90;99.90
22071;DHT22;11200;51.488;6.668;2023-05-01T12:23:01;25.10;99.90
22071;DHT22;11200;51.488;6.668;2023-05-01T12:25:31;25.20;99.90
22071;DHT22;11200;51.488;6.668;2023-05-01T12:27:59;25.20;99.90
22071;DHT22;11200;51.488;6.668;2023-05-01T12:30:26;25.20;99.90
22071;DHT22;11200;51.488;6.668;2023-05-01T12:32:52;25.30;99.90
22071;DHT22;11200;51.488;6.668;2023-05-01T12:35:18;25.40;99.90
22071;DHT22;11200;51.488;6.668;2023-05-01T12:37:43;25.40;99.90
22071;DHT22;11200;51.488;6.668;2023-05-01T12:40:15;25.30;99.90
22071;DHT22;11200;51.488;6.668;2023-05-01T12:42:43;25.30;99.90
22071;DHT22;11200;51.488;6.668;2023-05-01T12:45:09;25.40;99.90
22071;DHT22;11200;51.488;6.668;2023-05-01T12:47:39;25.40;99.90
22071;DHT22;11200;51.488;6.668;2023-05-01T12:50:05;25.30;99.90
22071;DHT22;11200;51.488;6.668;2023-05-01T12:52:33;25.40;99.90
22071;DHT22;11200;51.488;6.668;2023-05-01T12:55:03;25.40;99.90
22071;DHT22;11200;51.488;6.668;2023-05-01T12:57:29;25.40;99.90
22071;DHT22;11200;51.488;6.668;2023-05-01T12:59:59;25.50;99.90
22071;DHT22;11200;51.488;6.668;2023-05-01T13:02:35;25.50;99.90
22071;DHT22;11200;51.488;6.668;2023-05-01T13:05:06;25.50;99.90
22071;DHT22;11200;51.488;6.668;2023-05-01T13:13:45;26.20;99.90
22071;DHT22;11200;51.488;6.668;2023-05-01T13:16:15;25.40;99.90
22071;DHT22;11200;51.488;6.668;2023-05-01T13:18:46;25.30;99.90
22071;DHT22;11200;51.488;6.668;2023-05-01T13:21:17;25.40;99.90
22071;DHT22;11200;51.488;6.668;2023-05-01T13:23:55;25.40;99.90
22071;DHT22;11200;51.488;6.668;2023-05-01T13:26:29;25.30;99.90
22071;DHT22;11200;51.488;6.668;2023-05-01T13:29:00;25.30;99.90
22071;DHT22;11200;51.488;6.668;2023-05-01T13:31:26;25.30;99.90
22071;DHT22;11200;51.488;6.668;2023-05-01T13:33:53;25.20;99.90
22071;DHT22;11200;51.488;6.668;2023-05-01T13:36:19;25.20;99.90
22071;DHT22;11200;51.488;6.668;2023-05-01T13:38:48;25.10;99.90
22071;DHT22;11200;51.488;6.668;2023-05-01T13:41:18;25.10;99.90
22071;DHT22;11200;51.488;6.668;2023-05-01T13:43:50;25.10;99.90
22071;DHT22;11200;51.488;6.668;2023-05-01T13:46:18;25.00;99.90
22071;DHT22;11200;51.488;6.668;2023-05-01T13:48:46;24.90;99.90
22071;DHT22;11200;51.488;6.668;2023-05-01T13:51:13;24.80;99.90
22071;DHT22;11200;51.488;6.668;2023-05-01T13:53:42;24.80;99.90
22071;DHT22;11200;51.488;6.668;2023-05-01T13:56:09;24.70;99.90
22071;DHT22;11200;51.488;6.668;2023-05-01T13:58:39;24.60;99.90
22071;DHT22;11200;51.488;6.668;2023-05-01T14:01:13;24.50;99.90
22071;DHT22;11200;51.488;6.668;2023-05-01T14:03:40;24.50;99.90
22071;DHT22;11200;51.488;6.668;2023-05-01T14:06:14;24.40;99.90
22071;DHT22;11200;51.488;6.668;2023-05-01T14:08:41;24.40;99.90
22071;DHT22;11200;51.488;6.668;2023-05-01T14:11:08;24.40;99.90
22071;DHT22;11200;51.488;6.668;2023-05-01T14:13:41;24.40;99.90
22071;DHT22;11200;51.488;6.668;2023-05-01T14:16:08;24.30;99.90
22071;DHT22;11200;51.488;6.668;2023-05-01T14:18:44;24.30;99.90
22071;DHT22;11200;51.488;6.668;2023-05-01T14:21:15;24.20;99.90
22071;DHT22;11200;51.488;6.668;2023-05-01T14:23:41;24.10;99.90
22071;DHT22;11200;51.488;6.668;2023-05-01T14:26:07;24.00;99.90
22071;DHT22;11200;51.488;6.668;2023-05-01T14:28:38;24.00;99.90
22071;DHT22;11200;51.488;6.668;2023-05-01T14:31:06;23.80;99.90
22071;DHT22;11200;51.488;6.668;2023-05-01T14:33:33;23.70;99.90
22071;DHT22;11200;51.488;6.668;2023-05-01T14:36:02;23.60;99.90
22071;DHT22;11200;51.488;6.668;2023-05-01T14:38:30;23.40;99.90
22071;DHT22;11200;51.488;6.668;2023-05-01T14:41:03;23.30;99.90
22071;DHT22;11200;51.488;6.668;2023-05-01T14:43:30;23.20;99.90
22071;DHT22;11200;51.488;6.668;2023-05-01T14:45:57;23.00;99.90
22071;DHT22;11200;51.488;6.668;2023-05-01T14:48:35;22.90;99.90
22071;DHT22;11200;51.488;6.668;2023-05-01T14:51:17;22.70;99.90
22071;DHT22;11200;51.488;6.668;2023-05-01T14:53:55;22.60;99.90
22071;DHT22;11200;51.488;6.668;2023-05-01T14:56:21;22.40;99.90
22071;DHT22;11200;51.488;6.668;2023-05-01T14:58:48;22.20;99.90
22071;DHT22;11200;51.488;6.668;2023-05-01T15:01:14;22.10;99.90
22071;DHT22;11200;51.488;6.668;2023-05-01T15:03:40;21.90;99.90
22071;DHT22;11200;51.488;6.668;2023-05-01T15:06:06;21.70;99.90
22071;DHT22;11200;51.488;6.668;2023-05-01T15:08:33;21.60;99.90
22071;DHT22;11200;51.488;6.668;2023-05-01T15:10:59;21.50;99.90
22071;DHT22;11200;51.488;6.668;2023-05-01T15:13:25;21.30;99.90
22071;DHT22;11200;51.488;6.668;2023-05-01T15:15:50;21.10;99.90
22071;DHT22;11200;51.488;6.668;2023-05-01T15:18:17;21.00;99.90
22071;DHT22;11200;51.488;6.668;2023-05-01T15:20:43;20.80;99.90
22071;DHT22;11200;51.488;6.668;2023-05-01T15:23:09;20.70;99.90
22071;DHT22;11200;51.488;6.668;2023-05-01T15:25:37;20.60;99.90
22071;DHT22;11200;51.488;6.668;2023-05-01T15:28:03;20.40;99.90
22071;DHT22;11200;51.488;6.668;2023-05-01T15:30:28;20.40;99.90
22071;DHT22;11200;51.488;6.668;2023-05-01T15:32:54;20.20;99.90
22071;DHT22;11200;51.488;6.668;2023-05-01T15:35:20;20.20;99.90
22071;DHT22;11200;51.488;6.668;2023-05-01T15:37:48;20.10;99.90
22071;DHT22;11200;51.488;6.668;2023-05-01T15:40:14;19.90;99.90
22071;DHT22;11200;51.488;6.668;2023-05-01T15:42:40;19.80;99.90
22071;DHT22;11200;51.488;6.668;2023-05-01T15:45:06;19.70;99.90
22071;DHT22;11200;51.488;6.668;2023-05-01T15:47:32;19.60;99.90
22071;DHT22;11200;51.488;6.668;2023-05-01T15:49:58;19.50;99.90
22071;DHT22;11200;51.488;6.668;2023-05-01T15:52:23;19.40;99.90
22071;DHT22;11200;51.488;6.668;2023-05-01T15:54:49;19.40;99.90
22071;DHT22;11200;51.488;6.668;2023-05-01T15:57:16;19.30;99.90
22071;DHT22;11200;51.488;6.668;2023-05-01T15:59:44;19.20;99.90
22071;DHT22;11200;51.488;6.668;2023-05-01T16:02:10;19.00;99.90
22071;DHT22;11200;51.488;6.668;2023-05-01T16:04:36;19.00;99.90
22071;DHT22;11200;51.488;6.668;2023-05-01T16:07:03;19.00;99.90
22071;DHT22;11200;51.488;6.668;2023-05-01T16:09:31;18.80;99.90
22071;DHT22;11200;51.488;6.668;2023-05-01T16:11:57;18.80;99.90
22071;DHT22;11200;51.488;6.668;2023-05-01T16:14:24;19.40;99.90
22071;DHT22;11200;51.488;6.668;2023-05-01T16:16:50;18.70;99.90
22071;DHT22;11200;51.488;6.668;2023-05-01T16:19:16;18.00;99.90
22071;DHT22;11200;51.488;6.668;2023-05-01T16:21:42;18.70;99.90
22071;DHT22;11200;51.488;6.668;2023-05-01T16:24:08;18.50;99.90
22071;DHT22;11200;51.488;6.668;2023-05-01T16:26:34;18.40;99.90